createdAt,value
2019-05-10T00:00:20.527Z,0.00
2019-05-10T00:01:20.952Z,0.00
2019-05-10T00:02:21.381Z,0.00
2019-05-10T00:03:21.811Z,0.00
2019-05-10T00:04:22.241Z,0.00
2019-05-10T00:05:22.666Z,0.00
2019-05-10T00:06:23.159Z,0.00
2019-05-10T00:07:23.539Z,0.00
2019-05-10T00:08:23.982Z,0.00
2019-05-10T00:09:24.395Z,0.00
2019-05-10T00:10:24.826Z,0.00
2019-05-10T00:11:25.256Z,0.00
2019-05-10T00:12:25.696Z,0.00
2019-05-10T00:13:26.164Z,0.00
2019-05-10T00:14:26.545Z,0.00
2019-05-10T00:15:26.974Z,0.00
2019-05-10T00:16:27.403Z,0.00
2019-05-10T00:17:27.832Z,0.00
2019-05-10T00:18:28.265Z,0.00
2019-05-10T00:19:28.693Z,0.00
2019-05-10T00:20:29.131Z,0.00
2019-05-10T00:21:29.551Z,0.00
2019-05-10T00:22:29.985Z,0.00
2019-05-10T00:23:30.416Z,0.00
2019-05-10T00:24:30.846Z,0.00
2019-05-10T00:25:31.272Z,0.00
2019-05-10T00:26:31.714Z,0.00
2019-05-10T00:27:32.136Z,0.00
2019-05-10T00:28:32.565Z,0.00
2019-05-10T00:29:32.995Z,0.00
2019-05-10T00:30:33.429Z,0.00
2019-05-10T00:31:33.872Z,0.00
2019-05-10T00:32:34.289Z,0.00
2019-05-10T00:33:34.727Z,0.00
2019-05-10T00:34:35.146Z,0.00
2019-05-10T00:35:35.584Z,0.00
2019-05-10T00:36:36.011Z,0.00
2019-05-10T00:37:36.438Z,0.00
2019-05-10T00:38:36.877Z,0.00
2019-05-10T00:39:37.368Z,0.00
2019-05-10T00:40:37.739Z,0.00
2019-05-10T00:41:38.157Z,0.00
2019-05-10T00:42:38.591Z,0.00
2019-05-10T00:43:39.026Z,0.00
2019-05-10T00:44:39.453Z,0.00
2019-05-10T00:45:39.883Z,0.00
2019-05-10T00:46:40.312Z,0.00
2019-05-10T00:47:40.746Z,0.00
2019-05-10T00:48:41.185Z,0.00
2019-05-10T00:49:41.616Z,0.00
2019-05-10T00:50:42.035Z,0.00
2019-05-10T00:51:42.470Z,0.00
2019-05-10T00:52:42.891Z,0.00
2019-05-10T00:53:43.334Z,0.00
2019-05-10T00:54:43.759Z,0.00
2019-05-10T00:55:44.195Z,0.00
2019-05-10T00:56:44.631Z,0.00
2019-05-10T00:57:45.067Z,0.00
2019-05-10T00:58:45.494Z,0.00
2019-05-10T00:59:45.978Z,0.00
2019-05-10T01:00:46.337Z,0.00
2019-05-10T01:01:46.776Z,0.00
2019-05-10T01:02:47.203Z,0.00
2019-05-10T01:03:47.635Z,0.00
2019-05-10T01:04:48.065Z,0.00
2019-05-10T01:05:48.503Z,0.00
2019-05-10T01:06:48.926Z,0.00
2019-05-10T01:07:49.351Z,0.00
2019-05-10T01:08:49.792Z,0.00
2019-05-10T01:09:50.220Z,0.00
2019-05-10T01:10:50.648Z,0.00
2019-05-10T01:11:51.089Z,0.00
2019-05-10T01:12:51.509Z,0.00
2019-05-10T01:13:51.945Z,0.00
2019-05-10T01:14:52.365Z,0.00
2019-05-10T01:15:52.819Z,0.00
2019-05-10T01:16:53.225Z,0.00
2019-05-10T01:17:53.665Z,0.00
2019-05-10T01:18:54.091Z,0.00
2019-05-10T01:19:54.543Z,0.00
2019-05-10T01:20:54.955Z,0.00
2019-05-10T01:21:55.384Z,0.00
2019-05-10T01:22:55.818Z,0.00
2019-05-10T01:23:56.240Z,0.00
2019-05-10T01:24:56.670Z,0.00
2019-05-10T01:25:57.101Z,0.00
2019-05-10T01:26:57.542Z,0.00
2019-05-10T01:27:57.961Z,0.00
2019-05-10T01:28:58.394Z,0.00
2019-05-10T01:29:58.837Z,0.00
2019-05-10T01:30:59.257Z,0.00
2019-05-10T01:31:59.687Z,0.00
2019-05-10T01:33:00.113Z,0.00
2019-05-10T01:34:00.549Z,0.00
2019-05-10T01:35:00.978Z,0.00
2019-05-10T01:36:01.408Z,0.00
2019-05-10T01:37:01.835Z,0.00
2019-05-10T01:38:02.270Z,0.00
2019-05-10T01:39:02.692Z,0.00
2019-05-10T01:40:03.130Z,0.00
2019-05-10T01:41:03.562Z,0.00
2019-05-10T01:42:03.988Z,0.00
2019-05-10T01:43:04.417Z,0.00
2019-05-10T01:44:04.859Z,0.00
2019-05-10T01:45:05.284Z,0.00
2019-05-10T01:46:05.714Z,0.00
2019-05-10T01:47:06.138Z,0.00
2019-05-10T01:48:06.577Z,0.00
2019-05-10T01:49:07.013Z,0.00
2019-05-10T01:50:07.435Z,0.00
2019-05-10T01:51:07.860Z,0.00
2019-05-10T01:52:08.299Z,0.00
2019-05-10T01:53:08.722Z,0.00
2019-05-10T01:54:09.154Z,0.00
2019-05-10T01:55:09.583Z,0.00
2019-05-10T01:56:10.039Z,0.00
2019-05-10T01:57:10.445Z,0.00
2019-05-10T01:58:10.876Z,0.00
2019-05-10T01:59:11.321Z,0.00
2019-05-10T02:00:11.737Z,0.00
2019-05-10T02:01:12.170Z,0.00
2019-05-10T02:02:12.608Z,0.00
2019-05-10T02:03:13.029Z,0.00
2019-05-10T02:04:17.410Z,0.00
2019-05-10T02:05:13.890Z,0.00
2019-05-10T02:06:14.347Z,0.00
2019-05-10T02:07:14.755Z,0.00
2019-05-10T02:08:15.199Z,0.00
2019-05-10T02:09:15.616Z,0.00
2019-05-10T02:10:16.049Z,0.00
2019-05-10T02:11:16.525Z,0.00
2019-05-10T02:12:16.914Z,0.00
2019-05-10T02:13:17.351Z,0.00
2019-05-10T02:14:17.768Z,0.00
2019-05-10T02:15:18.204Z,0.00
2019-05-10T02:16:18.636Z,0.00
2019-05-10T02:17:19.070Z,0.00
2019-05-10T02:18:19.492Z,0.00
2019-05-10T02:19:19.923Z,0.00
2019-05-10T02:20:20.352Z,0.00
2019-05-10T02:21:20.788Z,0.00
2019-05-10T02:22:21.214Z,0.00
2019-05-10T02:23:21.656Z,0.00
2019-05-10T02:24:22.077Z,0.00
2019-05-10T02:25:22.508Z,0.00
2019-05-10T02:26:22.938Z,0.00
2019-05-10T02:27:23.378Z,0.00
2019-05-10T02:28:23.807Z,0.00
2019-05-10T02:29:24.237Z,0.00
2019-05-10T02:30:24.670Z,0.00
2019-05-10T02:31:25.091Z,0.00
2019-05-10T02:32:25.529Z,0.00
2019-05-10T02:33:25.956Z,0.00
2019-05-10T02:34:26.384Z,0.00
2019-05-10T02:35:26.832Z,0.00
2019-05-10T02:36:27.256Z,0.00
2019-05-10T02:37:27.683Z,0.00
2019-05-10T02:38:28.108Z,0.00
2019-05-10T02:39:28.542Z,0.00
2019-05-10T02:40:28.975Z,0.00
2019-05-10T02:41:29.410Z,0.00
2019-05-10T02:42:29.853Z,0.00
2019-05-10T02:43:30.290Z,0.00
2019-05-10T02:44:30.701Z,0.00
2019-05-10T02:45:31.124Z,0.00
2019-05-10T02:46:31.548Z,0.00
2019-05-10T02:47:31.987Z,0.00
2019-05-10T02:48:32.430Z,0.00
2019-05-10T02:49:32.848Z,4.00
2019-05-10T02:50:33.278Z,4.00
2019-05-10T02:51:33.709Z,4.00
2019-05-10T02:52:34.133Z,4.00
2019-05-10T02:53:34.586Z,0.00
2019-05-10T02:54:35.004Z,0.00
2019-05-10T02:55:35.435Z,4.00
2019-05-10T02:56:35.862Z,4.00
2019-05-10T02:57:36.297Z,4.00
2019-05-10T02:58:36.723Z,4.00
2019-05-10T02:59:37.166Z,4.00
2019-05-10T03:00:37.590Z,8.00
2019-05-10T03:01:38.018Z,4.00
2019-05-10T03:02:38.473Z,8.00
2019-05-10T03:03:38.883Z,8.00
2019-05-10T03:04:39.312Z,8.00
2019-05-10T03:05:39.745Z,12.00
2019-05-10T03:06:40.280Z,12.00
2019-05-10T03:07:40.605Z,12.00
2019-05-10T03:08:41.044Z,12.00
2019-05-10T03:09:41.466Z,16.00
2019-05-10T03:10:41.898Z,16.00
2019-05-10T03:11:42.332Z,16.00
2019-05-10T03:12:42.759Z,20.00
2019-05-10T03:13:43.197Z,20.00
2019-05-10T03:14:43.632Z,24.00
2019-05-10T03:15:44.059Z,28.00
2019-05-10T03:16:44.494Z,24.00
2019-05-10T03:17:44.919Z,28.00
2019-05-10T03:18:45.359Z,32.00
2019-05-10T03:19:45.893Z,36.00
2019-05-10T03:20:46.208Z,40.00
2019-05-10T03:21:46.660Z,44.00
2019-05-10T03:22:47.075Z,48.00
2019-05-10T03:23:47.510Z,52.00
2019-05-10T03:24:47.949Z,56.00
2019-05-10T03:25:48.367Z,64.00
2019-05-10T03:26:51.288Z,68.00
2019-05-10T03:27:49.236Z,68.00
2019-05-10T03:28:49.667Z,76.00
2019-05-10T03:29:50.095Z,76.00
2019-05-10T03:30:50.544Z,80.00
2019-05-10T03:31:50.961Z,80.00
2019-05-10T03:32:51.421Z,84.00
2019-05-10T03:33:56.929Z,88.00
2019-05-10T03:34:52.249Z,92.00
2019-05-10T03:35:52.688Z,100.00
2019-05-10T03:36:53.118Z,108.00
2019-05-10T03:37:53.565Z,124.00
2019-05-10T03:38:53.973Z,136.00
2019-05-10T03:39:54.421Z,152.00
2019-05-10T03:40:54.837Z,164.00
2019-05-10T03:41:55.267Z,176.00
2019-05-10T03:42:55.704Z,188.00
2019-05-10T03:43:56.138Z,200.00
2019-05-10T03:44:56.563Z,216.00
2019-05-10T03:45:56.993Z,236.00
2019-05-10T03:46:57.428Z,256.00
2019-05-10T03:47:57.860Z,268.00
2019-05-10T03:48:58.287Z,276.00
2019-05-10T03:49:58.722Z,284.00
2019-05-10T03:50:59.172Z,284.00
2019-05-10T03:51:59.582Z,280.00
2019-05-10T03:53:00.021Z,280.00
2019-05-10T03:54:00.451Z,280.00
2019-05-10T03:55:00.877Z,292.00
2019-05-10T03:56:01.308Z,304.00
2019-05-10T03:57:12.971Z,324.00
2019-05-10T03:58:02.172Z,340.00
2019-05-10T03:59:02.597Z,356.00
2019-05-10T04:00:03.041Z,380.00
2019-05-10T04:01:03.465Z,400.00
2019-05-10T04:02:03.896Z,424.00
2019-05-10T04:03:04.325Z,460.00
2019-05-10T04:04:08.920Z,504.00
2019-05-10T04:05:05.189Z,540.00
2019-05-10T04:06:05.628Z,580.00
2019-05-10T04:07:06.052Z,616.00
2019-05-10T04:08:06.489Z,652.00
2019-05-10T04:09:06.910Z,692.00
2019-05-10T04:10:07.348Z,720.00
2019-05-10T04:11:07.787Z,756.00
2019-05-10T04:12:08.210Z,800.00
2019-05-10T04:13:08.696Z,848.00
2019-05-10T04:14:09.072Z,912.00
2019-05-10T04:15:09.499Z,976.00
2019-05-10T04:16:09.930Z,1048.00
2019-05-10T04:17:10.362Z,1120.00
2019-05-10T04:18:10.795Z,1204.00
2019-05-10T04:19:11.227Z,1296.00
2019-05-10T04:20:11.667Z,1372.00
2019-05-10T04:21:12.096Z,1436.00
2019-05-10T04:22:12.519Z,1472.00
2019-05-10T04:23:12.950Z,1492.00
2019-05-10T04:24:13.382Z,1516.00
2019-05-10T04:25:13.811Z,1536.00
2019-05-10T04:26:14.245Z,1584.00
2019-05-10T04:27:30.781Z,1628.00
2019-05-10T04:28:15.103Z,1652.00
2019-05-10T04:29:15.542Z,1648.00
2019-05-10T04:30:15.982Z,1624.00
2019-05-10T04:31:16.395Z,1580.00
2019-05-10T04:32:16.851Z,1540.00
2019-05-10T04:33:17.271Z,1500.00
2019-05-10T04:34:17.704Z,1456.00
2019-05-10T04:35:18.128Z,1416.00
2019-05-10T04:36:18.551Z,1388.00
2019-05-10T04:37:18.984Z,1372.00
2019-05-10T04:38:19.419Z,1352.00
2019-05-10T04:39:19.845Z,1316.00
2019-05-10T04:40:20.276Z,1272.00
2019-05-10T04:41:20.714Z,1220.00
2019-05-10T04:42:21.142Z,1196.00
2019-05-10T04:43:21.573Z,1196.00
2019-05-10T04:44:22.001Z,1224.00
2019-05-10T04:45:22.435Z,1256.00
2019-05-10T04:46:22.873Z,1272.00
2019-05-10T04:47:23.297Z,1268.00
2019-05-10T04:48:23.729Z,1272.00
2019-05-10T04:49:24.173Z,1296.00
2019-05-10T04:50:24.613Z,1312.00
2019-05-10T04:51:25.018Z,1316.00
2019-05-10T04:52:25.463Z,1340.00
2019-05-10T04:53:25.908Z,1380.00
2019-05-10T04:54:26.313Z,1424.00
2019-05-10T04:55:26.743Z,1464.00
2019-05-10T04:56:27.239Z,1512.00
2019-05-10T04:57:27.619Z,1548.00
2019-05-10T04:58:28.034Z,1572.00
2019-05-10T04:59:28.476Z,1580.00
2019-05-10T05:00:28.914Z,1596.00
2019-05-10T05:01:29.351Z,1632.00
2019-05-10T05:02:29.766Z,1668.00
2019-05-10T05:03:30.198Z,1724.00
2019-05-10T05:04:30.648Z,1776.00
2019-05-10T05:05:31.061Z,1828.00
2019-05-10T05:06:31.509Z,1896.00
2019-05-10T05:07:31.931Z,1952.00
2019-05-10T05:08:32.366Z,2016.00
2019-05-10T05:09:32.793Z,2076.00
2019-05-10T05:10:33.211Z,2104.00
2019-05-10T05:11:33.646Z,2096.00
2019-05-10T05:12:34.073Z,2088.00
2019-05-10T05:13:34.508Z,2092.00
2019-05-10T05:14:34.939Z,2140.00
2019-05-10T05:15:35.372Z,2208.00
2019-05-10T05:16:35.806Z,2276.00
2019-05-10T05:17:36.241Z,2316.00
2019-05-10T05:18:36.666Z,2400.00
2019-05-10T05:19:40.471Z,2528.00
2019-05-10T05:20:37.533Z,2660.00
2019-05-10T05:21:37.984Z,2784.00
2019-05-10T05:22:38.393Z,2892.00
2019-05-10T05:23:38.851Z,3004.00
2019-05-10T05:24:39.252Z,3168.00
2019-05-10T05:25:40.181Z,3320.00
2019-05-10T05:26:40.139Z,3444.00
2019-05-10T05:27:40.569Z,3580.00
2019-05-10T05:28:40.985Z,3732.00
2019-05-10T05:29:41.437Z,3824.00
2019-05-10T05:30:41.858Z,3900.00
2019-05-10T05:31:42.283Z,4008.00
2019-05-10T05:32:44.422Z,4192.00
2019-05-10T05:33:43.154Z,4400.00
2019-05-10T05:34:43.579Z,4528.00
2019-05-10T05:35:44.017Z,4624.00
2019-05-10T05:36:44.449Z,4676.00
2019-05-10T05:37:44.925Z,4732.00
2019-05-10T05:38:46.881Z,4764.00
2019-05-10T05:39:45.742Z,4816.00
2019-05-10T05:40:46.173Z,4920.00
2019-05-10T05:41:51.728Z,5092.00
2019-05-10T05:42:47.043Z,5264.00
2019-05-10T05:43:48.236Z,5456.00
2019-05-10T05:44:47.903Z,5608.00
2019-05-10T05:45:48.366Z,5564.00
2019-05-10T05:46:48.803Z,5552.00
2019-05-10T05:47:49.202Z,5500.00
2019-05-10T05:48:51.568Z,5412.00
2019-05-10T05:49:50.080Z,5348.00
2019-05-10T05:50:50.534Z,5372.00
2019-05-10T05:51:50.939Z,5480.00
2019-05-10T05:52:51.395Z,5672.00
2019-05-10T05:53:51.850Z,5976.00
2019-05-10T05:54:52.945Z,6388.00
2019-05-10T05:55:52.671Z,6916.00
2019-05-10T05:56:53.339Z,7272.00
2019-05-10T05:57:53.540Z,7392.00
2019-05-10T05:58:53.982Z,7472.00
2019-05-10T05:59:57.304Z,7404.00
2019-05-10T06:00:54.828Z,7324.00
2019-05-10T06:02:00.862Z,7224.00
2019-05-10T06:02:55.720Z,7128.00
2019-05-10T06:04:00.327Z,7112.00
2019-05-10T06:04:56.572Z,7212.00
2019-05-10T06:05:57.003Z,7396.00
2019-05-10T06:06:59.119Z,7556.00
2019-05-10T06:07:57.880Z,7668.00
2019-05-10T06:08:59.778Z,7648.00
2019-05-10T06:09:58.738Z,7444.00
2019-05-10T06:10:59.970Z,7188.00
2019-05-10T06:11:59.620Z,6912.00
2019-05-10T06:13:00.085Z,6692.00
2019-05-10T06:14:03.790Z,6616.00
2019-05-10T06:15:00.912Z,6568.00
2019-05-10T06:16:06.750Z,6664.00
2019-05-10T06:17:01.780Z,6772.00
2019-05-10T06:18:03.465Z,6836.00
2019-05-10T06:19:02.647Z,6720.00
2019-05-10T06:20:06.073Z,6540.00
2019-05-10T06:21:03.511Z,6368.00
2019-05-10T06:22:06.948Z,6224.00
2019-05-10T06:23:06.982Z,6120.00
2019-05-10T06:24:07.625Z,5952.00
2019-05-10T06:25:05.246Z,5880.00
2019-05-10T06:26:06.201Z,5800.00
2019-05-10T06:27:06.145Z,5768.00
2019-05-10T06:28:24.081Z,5732.00
2019-05-10T06:29:16.335Z,5800.00
2019-05-10T06:30:07.424Z,5900.00
2019-05-10T06:31:07.849Z,6120.00
2019-05-10T06:32:08.294Z,6376.00
2019-05-10T06:33:12.714Z,6592.00
2019-05-10T06:34:09.152Z,6776.00
2019-05-10T06:35:14.121Z,6944.00
2019-05-10T06:36:10.032Z,7092.00
2019-05-10T06:37:10.463Z,7240.00
2019-05-10T06:38:10.892Z,7436.00
2019-05-10T06:39:18.607Z,7660.00
2019-05-10T06:40:11.757Z,7908.00
2019-05-10T06:41:16.932Z,7988.00
2019-05-10T06:42:12.634Z,7876.00
2019-05-10T06:43:15.424Z,7596.00
2019-05-10T06:44:13.504Z,7140.00
2019-05-10T06:45:16.119Z,6660.00
2019-05-10T06:46:14.406Z,6296.00
2019-05-10T06:47:14.814Z,6248.00
2019-05-10T06:48:26.335Z,6396.00
2019-05-10T06:49:15.681Z,6652.00
2019-05-10T06:50:16.127Z,6928.00
2019-05-10T06:51:16.605Z,7044.00
2019-05-10T06:52:21.676Z,7068.00
2019-05-10T06:53:17.423Z,7028.00
2019-05-10T06:54:17.857Z,7172.00
2019-05-10T06:55:18.292Z,7456.00
2019-05-10T06:56:18.724Z,7924.00
2019-05-10T06:57:19.349Z,8440.00
2019-05-10T06:58:19.600Z,8720.00
2019-05-10T06:59:24.961Z,8824.00
2019-05-10T07:00:20.463Z,8868.00
2019-05-10T07:01:20.906Z,8996.00
2019-05-10T07:02:26.668Z,9236.00
2019-05-10T07:03:21.780Z,9608.00
2019-05-10T07:04:22.203Z,10080.00
2019-05-10T07:05:22.642Z,10496.00
2019-05-10T07:06:23.075Z,10952.00
2019-05-10T07:07:42.469Z,11308.00
2019-05-10T07:08:23.951Z,11932.00
2019-05-10T07:09:24.383Z,14320.00
2019-05-10T07:10:25.402Z,13604.00
2019-05-10T07:11:25.257Z,14468.00
2019-05-10T07:12:25.687Z,15560.00
2019-05-10T07:13:26.131Z,16480.00
2019-05-10T07:14:27.344Z,17856.00
2019-05-10T07:15:26.999Z,15544.00
2019-05-10T07:16:27.450Z,16896.00
2019-05-10T07:17:27.870Z,17312.00
2019-05-10T07:18:28.312Z,19520.00
2019-05-10T07:19:29.035Z,19552.00
2019-05-10T07:20:30.864Z,27232.00
2019-05-10T07:21:29.622Z,52704.00
2019-05-10T07:22:30.071Z,21984.00
2019-05-10T07:23:30.531Z,27456.00
2019-05-10T07:24:30.949Z,24576.00
2019-05-10T07:25:31.382Z,19648.00
2019-05-10T07:26:31.825Z,20320.00
2019-05-10T07:27:36.685Z,18272.00
2019-05-10T07:28:32.699Z,19872.00
2019-05-10T07:29:41.859Z,21024.00
2019-05-10T07:30:33.579Z,22496.00
2019-05-10T07:31:34.038Z,23008.00
2019-05-10T07:32:34.462Z,27008.00
2019-05-10T07:33:37.179Z,27520.00
2019-05-10T07:34:35.342Z,28960.00
2019-05-10T07:35:36.683Z,41376.00
2019-05-10T07:36:36.226Z,33120.00
2019-05-10T07:37:36.672Z,38368.00
2019-05-10T07:38:37.106Z,19744.00
2019-05-10T07:39:37.549Z,17792.00
2019-05-10T07:40:37.995Z,17280.00
2019-05-10T07:41:38.438Z,17664.00
2019-05-10T07:42:39.979Z,18880.00
2019-05-10T07:43:39.319Z,18656.00
2019-05-10T07:44:41.487Z,19104.00
2019-05-10T07:45:40.210Z,20256.00
2019-05-10T07:46:46.469Z,22176.00
2019-05-10T07:47:41.088Z,21056.00
2019-05-10T07:48:47.405Z,20864.00
2019-05-10T07:49:41.975Z,21536.00
2019-05-10T07:50:48.982Z,16416.00
2019-05-10T07:51:42.861Z,14216.00
2019-05-10T07:52:45.515Z,11048.00
2019-05-10T07:53:43.739Z,9532.00
2019-05-10T07:54:45.631Z,8156.00
2019-05-10T07:55:44.631Z,7536.00
2019-05-10T07:56:46.141Z,7344.00
2019-05-10T07:57:45.518Z,7448.00
2019-05-10T07:58:45.953Z,7640.00
2019-05-10T07:59:50.656Z,7932.00
2019-05-10T08:00:46.893Z,8760.00
2019-05-10T08:01:49.179Z,9612.00
2019-05-10T08:02:52.760Z,10288.00
2019-05-10T08:03:52.349Z,11020.00
2019-05-10T08:04:51.337Z,11932.00
2019-05-10T08:05:55.206Z,13212.00
2019-05-10T08:06:52.132Z,14584.00
2019-05-10T08:07:49.919Z,16480.00
2019-05-10T08:08:55.440Z,18752.00
2019-05-10T08:09:50.797Z,22272.00
2019-05-10T08:10:51.247Z,28384.00
2019-05-10T08:11:57.636Z,43648.00
2019-05-10T08:12:52.122Z,38496.00
2019-05-10T08:13:52.565Z,33920.00
2019-05-10T08:14:53.650Z,25376.00
2019-05-10T08:15:53.452Z,24992.00
2019-05-10T08:16:58.405Z,27872.00
2019-05-10T08:17:54.327Z,36320.00
2019-05-10T08:18:55.649Z,51936.00
2019-05-10T08:19:55.216Z,46272.00
2019-05-10T08:21:01.962Z,40992.00
2019-05-10T08:22:00.837Z,23616.00
2019-05-10T08:22:56.554Z,24224.00
2019-05-10T08:23:58.991Z,18944.00
2019-05-10T08:24:57.443Z,29408.00
2019-05-10T08:25:57.885Z,25920.00
2019-05-10T08:27:09.864Z,45984.00
2019-05-10T08:27:58.772Z,27104.00
2019-05-10T08:28:59.224Z,33088.00
2019-05-10T08:30:28.052Z,36352.00
2019-05-10T08:31:02.327Z,16864.00
2019-05-10T08:32:02.864Z,16288.00
2019-05-10T08:33:09.460Z,16352.00
2019-05-10T08:34:02.214Z,33632.00
2019-05-10T08:35:05.136Z,22784.00
2019-05-10T08:36:05.114Z,22656.00
2019-05-10T08:37:02.794Z,31040.00
2019-05-10T08:38:04.634Z,32256.00
2019-05-10T08:39:10.439Z,32832.00
2019-05-10T08:40:04.140Z,28256.00
2019-05-10T08:41:08.002Z,42592.00
2019-05-10T08:42:28.583Z,35232.00
2019-05-10T08:43:08.991Z,21024.00
2019-05-10T08:44:16.613Z,28960.00
2019-05-10T08:45:08.829Z,18048.00
2019-05-10T08:46:06.831Z,13844.00
2019-05-10T08:47:07.521Z,10252.00
2019-05-10T08:48:07.723Z,9824.00
2019-05-10T08:49:08.175Z,11596.00
2019-05-10T08:50:22.310Z,9108.00
2019-05-10T08:51:09.060Z,8744.00
2019-05-10T08:52:12.049Z,9248.00
2019-05-10T08:53:16.103Z,6832.00
2019-05-10T08:54:12.165Z,6636.00
2019-05-10T08:55:12.389Z,10036.00
2019-05-10T08:56:13.668Z,15872.00
2019-05-10T08:57:18.210Z,18432.00
2019-05-10T08:58:12.510Z,31520.00
2019-05-10T08:59:16.307Z,36768.00
2019-05-10T09:00:13.281Z,13652.00
2019-05-10T09:01:25.831Z,9764.00
2019-05-10T09:02:14.683Z,11600.00
2019-05-10T09:03:18.553Z,13780.00
2019-05-10T09:04:14.817Z,14844.00
2019-05-10T09:05:15.265Z,17056.00
2019-05-10T09:06:16.979Z,16108.00
2019-05-10T09:07:16.163Z,17952.00
2019-05-10T09:08:20.386Z,25664.00
2019-05-10T09:09:17.032Z,55616.00
2019-05-10T09:10:17.468Z,94432.00
2019-05-10T09:11:17.937Z,24064.00
2019-05-10T09:12:18.363Z,16140.00
2019-05-10T09:13:18.801Z,17376.00
2019-05-10T09:14:19.948Z,15776.00
2019-05-10T09:15:22.110Z,12084.00
2019-05-10T09:16:20.145Z,11676.00
2019-05-10T09:17:23.530Z,15116.00
2019-05-10T09:18:22.947Z,31808.00
2019-05-10T09:19:27.633Z,23008.00
2019-05-10T09:20:26.324Z,10248.00
2019-05-10T09:21:22.499Z,7296.00
2019-05-10T09:22:24.024Z,6164.00
2019-05-10T09:23:23.245Z,5400.00
2019-05-10T09:24:23.699Z,5092.00
2019-05-10T09:25:29.123Z,5212.00
2019-05-10T09:26:24.579Z,5940.00
2019-05-10T09:27:29.174Z,6884.00
2019-05-10T09:28:25.454Z,8072.00
2019-05-10T09:29:27.363Z,9220.00
2019-05-10T09:30:26.337Z,10148.00
2019-05-10T09:31:26.782Z,11592.00
2019-05-10T09:32:28.888Z,12824.00
2019-05-10T09:33:27.656Z,21088.00
2019-05-10T09:34:28.108Z,45568.00
2019-05-10T09:35:28.561Z,28768.00
2019-05-10T09:36:30.895Z,15452.00
2019-05-10T09:37:31.850Z,15348.00
2019-05-10T09:38:34.883Z,14976.00
2019-05-10T09:39:32.130Z,14728.00
2019-05-10T09:40:32.757Z,15160.00
2019-05-10T09:41:33.791Z,16768.00
2019-05-10T09:42:37.777Z,18688.00
2019-05-10T09:43:32.122Z,20768.00
2019-05-10T09:44:33.042Z,23936.00
2019-05-10T09:45:32.947Z,29856.00
2019-05-10T09:46:33.390Z,106112.00
2019-05-10T09:47:33.833Z,78656.00
2019-05-10T09:48:34.273Z,42624.00
2019-05-10T09:49:34.717Z,75776.00
2019-05-10T09:50:41.297Z,43904.00
2019-05-10T09:51:35.606Z,21664.00
2019-05-10T09:52:36.070Z,16104.00
2019-05-10T09:53:38.298Z,12776.00
2019-05-10T09:54:38.064Z,10824.00
2019-05-10T09:55:37.398Z,9860.00
2019-05-10T09:56:42.121Z,9380.00
2019-05-10T09:57:38.303Z,9548.00
2019-05-10T09:58:38.874Z,10272.00
2019-05-10T09:59:39.172Z,10844.00
2019-05-10T10:00:39.615Z,11308.00
2019-05-10T10:01:40.067Z,12180.00
2019-05-10T10:02:40.950Z,12724.00
2019-05-10T10:03:43.688Z,13112.00
2019-05-10T10:04:41.390Z,12076.00
2019-05-10T10:05:41.835Z,10688.00
2019-05-10T10:06:48.063Z,9604.00
2019-05-10T10:07:42.714Z,8916.00
2019-05-10T10:08:48.175Z,8816.00
2019-05-10T10:09:45.091Z,8812.00
2019-05-10T10:10:44.037Z,8072.00
2019-05-10T10:11:48.591Z,6960.00
2019-05-10T10:12:47.394Z,5448.00
2019-05-10T10:13:50.143Z,3852.00
2019-05-10T10:14:47.261Z,3028.00
2019-05-10T10:15:49.839Z,2836.00
2019-05-10T10:16:57.916Z,2660.00
2019-05-10T10:17:47.740Z,2588.00
2019-05-10T10:18:47.803Z,3132.00
2019-05-10T10:19:48.208Z,4240.00
2019-05-10T10:20:48.430Z,5292.00
2019-05-10T10:21:48.866Z,6240.00
2019-05-10T10:22:54.322Z,7280.00
2019-05-10T10:23:49.744Z,8564.00
2019-05-10T10:24:54.861Z,9912.00
2019-05-10T10:25:50.624Z,11084.00
2019-05-10T10:26:54.014Z,11896.00
2019-05-10T10:27:51.491Z,12456.00
2019-05-10T10:28:55.251Z,12380.00
2019-05-10T10:29:52.363Z,11392.00
2019-05-10T10:31:03.425Z,10900.00
2019-05-10T10:31:56.654Z,10332.00
2019-05-10T10:32:53.682Z,9816.00
2019-05-10T10:33:58.348Z,9656.00
2019-05-10T10:34:54.905Z,9668.00
2019-05-10T10:35:56.525Z,9744.00
2019-05-10T10:36:57.895Z,10104.00
2019-05-10T10:37:57.485Z,10760.00
2019-05-10T10:38:56.298Z,11976.00
2019-05-10T10:40:00.687Z,13836.00
2019-05-10T10:40:57.694Z,15216.00
2019-05-10T10:42:02.545Z,14084.00
2019-05-10T10:42:58.060Z,13344.00
2019-05-10T10:43:58.542Z,13080.00
2019-05-10T10:44:58.926Z,13884.00
2019-05-10T10:45:59.365Z,14216.00
2019-05-10T10:46:59.807Z,19584.00
2019-05-10T10:48:02.534Z,16200.00
2019-05-10T10:49:00.682Z,15444.00
2019-05-10T10:50:03.028Z,16060.00
2019-05-10T10:51:01.554Z,17472.00
2019-05-10T10:52:05.556Z,20192.00
2019-05-10T10:53:02.437Z,22144.00
2019-05-10T10:54:02.872Z,29824.00
2019-05-10T10:55:05.581Z,38432.00
2019-05-10T10:56:04.090Z,35616.00
2019-05-10T10:57:04.190Z,19808.00
2019-05-10T10:58:07.151Z,38048.00
2019-05-10T10:59:07.380Z,18592.00
2019-05-10T11:00:07.647Z,16736.00
2019-05-10T11:01:10.836Z,14676.00
2019-05-10T11:02:29.022Z,13388.00
2019-05-10T11:03:06.829Z,11572.00
2019-05-10T11:04:08.254Z,11264.00
2019-05-10T11:05:07.716Z,11948.00
2019-05-10T11:06:08.163Z,12840.00
2019-05-10T11:07:10.902Z,12856.00
2019-05-10T11:08:11.027Z,12160.00
2019-05-10T11:09:09.487Z,11948.00
2019-05-10T11:10:16.155Z,13292.00
2019-05-10T11:11:10.673Z,15516.00
2019-05-10T11:12:14.591Z,17056.00
2019-05-10T11:13:18.768Z,19008.00
2019-05-10T11:14:11.680Z,25216.00
2019-05-10T11:15:16.390Z,32800.00
2019-05-10T11:16:15.599Z,41344.00
2019-05-10T11:17:13.011Z,47456.00
2019-05-10T11:18:13.448Z,45120.00
2019-05-10T11:19:15.743Z,33632.00
2019-05-10T11:20:14.334Z,29536.00
2019-05-10T11:21:14.778Z,45824.00
2019-05-10T11:22:15.223Z,33696.00
2019-05-10T11:23:16.345Z,26368.00
2019-05-10T11:24:18.351Z,16076.00
2019-05-10T11:25:16.560Z,18752.00
2019-05-10T11:26:17.003Z,18464.00
2019-05-10T11:27:17.499Z,22464.00
2019-05-10T11:28:17.901Z,17120.00
2019-05-10T11:29:25.572Z,15712.00
2019-05-10T11:30:18.783Z,15020.00
2019-05-10T11:31:21.409Z,15336.00
2019-05-10T11:32:21.299Z,16672.00
2019-05-10T11:33:29.149Z,19936.00
2019-05-10T11:34:21.647Z,24320.00
2019-05-10T11:35:30.324Z,26176.00
2019-05-10T11:36:21.446Z,24832.00
2019-05-10T11:37:30.911Z,26720.00
2019-05-10T11:38:22.334Z,25152.00
2019-05-10T11:39:26.427Z,22048.00
2019-05-10T11:40:29.783Z,21344.00
2019-05-10T11:41:24.623Z,20544.00
2019-05-10T11:42:24.103Z,19424.00
2019-05-10T11:43:27.000Z,19744.00
2019-05-10T11:44:25.933Z,19040.00
2019-05-10T11:45:34.386Z,17184.00
2019-05-10T11:46:27.945Z,16672.00
2019-05-10T11:47:27.356Z,15496.00
2019-05-10T11:48:28.948Z,14584.00
2019-05-10T11:49:27.228Z,14156.00
2019-05-10T11:50:32.517Z,13404.00
2019-05-10T11:51:28.085Z,13656.00
2019-05-10T11:52:29.052Z,13660.00
2019-05-10T11:53:31.534Z,13220.00
2019-05-10T11:54:31.744Z,12948.00
2019-05-10T11:55:30.924Z,12292.00
2019-05-10T11:56:32.242Z,12240.00
2019-05-10T11:57:32.940Z,12336.00
2019-05-10T11:58:31.350Z,13220.00
2019-05-10T11:59:33.750Z,14904.00
2019-05-10T12:01:32.490Z,18624.00
2019-05-10T12:02:38.297Z,20320.00
2019-05-10T12:03:33.368Z,21376.00
2019-05-10T12:04:39.172Z,22912.00
2019-05-10T12:05:34.253Z,22656.00
2019-05-10T12:06:34.690Z,21824.00
2019-05-10T12:07:43.361Z,21440.00
2019-05-10T12:08:35.572Z,21056.00
2019-05-10T12:09:36.023Z,20096.00
2019-05-10T12:10:42.567Z,19104.00
2019-05-10T12:11:43.727Z,19584.00
2019-05-10T12:13:37.789Z,20000.00
2019-05-10T12:14:38.231Z,20288.00
2019-05-10T12:15:42.583Z,18560.00
2019-05-10T12:16:41.946Z,16152.00
2019-05-10T12:17:43.810Z,14564.00
2019-05-10T12:18:46.387Z,14692.00
2019-05-10T12:19:47.862Z,13752.00
2019-05-10T12:20:54.072Z,13680.00
2019-05-10T12:21:41.328Z,13580.00
2019-05-10T12:22:47.200Z,14456.00
2019-05-10T12:23:50.253Z,17056.00
2019-05-10T12:24:57.069Z,19136.00